<?xml version="1.0" encoding="UTF-8" standalone="no" ?>
<gpx xmlns="http://www.topografix.com/GPX/1/1" xmlns:xsi="http://www.w3.org/2001/XMLSchema-instance" xsi:schemaLocation="http://www.topografix.com/GPX/1/1 http://www.topografix.com/GPX/1/1/gpx.xsd" version="1.1" creator="VisuGPX - https://www.visugpx.com">
  <metadata>
    <name>8495277-Tour Bessin 179 km</name>
  </metadata>
  <trk>
    <name><![CDATA[8495277-Tour Bessin 179 km]]></name>
    <extensions>
      <line xmlns="http://www.topografix.com/GPX/gpx_style/0/2">
        <color>0000FF</color>
        <width>4</width>
      </line>
    </extensions>
    <trkseg>
      <trkpt lat="49.3199" lon="-1.09935">
        <ele>4</ele>
        <time>2019-02-14T10:58:24Z</time>
      </trkpt>
      <trkpt lat="49.32635" lon="-1.11228">
        <ele>3.7</ele>
        <time>2019-02-14T10:59:24Z</time>
      </trkpt>
      <trkpt lat="49.33687" lon="-1.11453">
        <ele>1</ele>
        <time>2019-02-14T11:00:24Z</time>
      </trkpt>
      <trkpt lat="49.3379" lon="-1.10864">
        <ele>1</ele>
        <time>2019-02-14T11:01:24Z</time>
      </trkpt>
      <trkpt lat="49.33845" lon="-1.09923">
        <ele>14</ele>
        <time>2019-02-14T11:02:24Z</time>
      </trkpt>
      <trkpt lat="49.33916" lon="-1.08976">
        <ele>17</ele>
        <time>2019-02-14T11:03:24Z</time>
      </trkpt>
      <trkpt lat="49.34723" lon="-1.0857">
        <ele>16</ele>
        <time>2019-02-14T11:04:24Z</time>
      </trkpt>
      <trkpt lat="49.34691" lon="-1.08503">
        <ele>18</ele>
        <time>2019-02-14T11:05:24Z</time>
      </trkpt>
      <trkpt lat="49.34917" lon="-1.08315">
        <ele>17</ele>
        <time>2019-02-14T11:06:24Z</time>
      </trkpt>
      <trkpt lat="49.34948" lon="-1.08461">
        <ele>15</ele>
        <time>2019-02-14T11:07:24Z</time>
      </trkpt>
      <trkpt lat="49.35158" lon="-1.08424">
        <ele>16</ele>
        <time>2019-02-14T11:08:24Z</time>
      </trkpt>
      <trkpt lat="49.35229" lon="-1.08582">
        <ele>15</ele>
        <time>2019-02-14T11:09:24Z</time>
      </trkpt>
      <trkpt lat="49.35569" lon="-1.08442">
        <ele>19</ele>
        <time>2019-02-14T11:10:24Z</time>
      </trkpt>
      <trkpt lat="49.35968" lon="-1.08266">
        <ele>18</ele>
        <time>2019-02-14T11:11:24Z</time>
      </trkpt>
      <trkpt lat="49.35707" lon="-1.07356">
        <ele>24</ele>
        <time>2019-02-14T11:12:24Z</time>
      </trkpt>
      <trkpt lat="49.35545" lon="-1.07429">
        <ele>23</ele>
        <time>2019-02-14T11:13:24Z</time>
      </trkpt>
      <trkpt lat="49.35328" lon="-1.05833">
        <ele>31</ele>
        <time>2019-02-14T11:14:24Z</time>
      </trkpt>
      <trkpt lat="49.35521" lon="-1.05881">
        <ele>32</ele>
        <time>2019-02-14T11:15:24Z</time>
      </trkpt>
      <trkpt lat="49.35925" lon="-1.05723">
        <ele>28</ele>
        <time>2019-02-14T11:16:24Z</time>
      </trkpt>
      <trkpt lat="49.35905" lon="-1.05481">
        <ele>29</ele>
        <time>2019-02-14T11:17:24Z</time>
      </trkpt>
      <trkpt lat="49.36103" lon="-1.05493">
        <ele>26</ele>
        <time>2019-02-14T11:18:24Z</time>
      </trkpt>
      <trkpt lat="49.363" lon="-1.05584">
        <ele>24</ele>
        <time>2019-02-14T11:19:24Z</time>
      </trkpt>
      <trkpt lat="49.36387" lon="-1.05535">
        <ele>25</ele>
        <time>2019-02-14T11:20:24Z</time>
      </trkpt>
      <trkpt lat="49.36348" lon="-1.05317">
        <ele>25</ele>
        <time>2019-02-14T11:21:24Z</time>
      </trkpt>
      <trkpt lat="49.36016" lon="-1.05086">
        <ele>30</ele>
        <time>2019-02-14T11:22:24Z</time>
      </trkpt>
      <trkpt lat="49.36012" lon="-1.04273">
        <ele>29</ele>
        <time>2019-02-14T11:23:24Z</time>
      </trkpt>
      <trkpt lat="49.3598" lon="-1.03757">
        <ele>30</ele>
        <time>2019-02-14T11:24:24Z</time>
      </trkpt>
      <trkpt lat="49.36008" lon="-1.03265">
        <ele>30</ele>
        <time>2019-02-14T11:25:24Z</time>
      </trkpt>
      <trkpt lat="49.35897" lon="-1.02907">
        <ele>27</ele>
        <time>2019-02-14T11:26:24Z</time>
      </trkpt>
      <trkpt lat="49.36083" lon="-1.02367">
        <ele>24</ele>
        <time>2019-02-14T11:27:24Z</time>
      </trkpt>
      <trkpt lat="49.35877" lon="-1.02191">
        <ele>25</ele>
        <time>2019-02-14T11:28:24Z</time>
      </trkpt>
      <trkpt lat="49.35873" lon="-1.02033">
        <ele>24</ele>
        <time>2019-02-14T11:29:24Z</time>
      </trkpt>
      <trkpt lat="49.3577" lon="-1.02015">
        <ele>24</ele>
        <time>2019-02-14T11:30:24Z</time>
      </trkpt>
      <trkpt lat="49.35818" lon="-1.01669">
        <ele>26</ele>
        <time>2019-02-14T11:31:24Z</time>
      </trkpt>
      <trkpt lat="49.35727" lon="-1.00917">
        <ele>29</ele>
        <time>2019-02-14T11:32:24Z</time>
      </trkpt>
      <trkpt lat="49.35929" lon="-1.00431">
        <ele>29</ele>
        <time>2019-02-14T11:33:24Z</time>
      </trkpt>
      <trkpt lat="49.35585" lon="-0.9932">
        <ele>29</ele>
        <time>2019-02-14T11:34:24Z</time>
      </trkpt>
      <trkpt lat="49.35727" lon="-0.99302">
        <ele>29</ele>
        <time>2019-02-14T11:35:24Z</time>
      </trkpt>
      <trkpt lat="49.35664" lon="-0.99011">
        <ele>28</ele>
        <time>2019-02-14T11:36:24Z</time>
      </trkpt>
      <trkpt lat="49.35699" lon="-0.98653">
        <ele>25</ele>
        <time>2019-02-14T11:37:24Z</time>
      </trkpt>
      <trkpt lat="49.35917" lon="-0.98562">
        <ele>18</ele>
        <time>2019-02-14T11:38:24Z</time>
      </trkpt>
      <trkpt lat="49.35889" lon="-0.98355">
        <ele>22</ele>
        <time>2019-02-14T11:39:24Z</time>
      </trkpt>
      <trkpt lat="49.35367" lon="-0.98355">
        <ele>30</ele>
        <time>2019-02-14T11:40:24Z</time>
      </trkpt>
      <trkpt lat="49.35367" lon="-0.98416">
        <ele>30</ele>
        <time>2019-02-14T11:41:24Z</time>
      </trkpt>
      <trkpt lat="49.35233" lon="-0.98422">
        <ele>32</ele>
        <time>2019-02-14T11:42:24Z</time>
      </trkpt>
      <trkpt lat="49.35225" lon="-0.97888">
        <ele>35</ele>
        <time>2019-02-14T11:43:24Z</time>
      </trkpt>
      <trkpt lat="49.35245" lon="-0.97524">
        <ele>31</ele>
        <time>2019-02-14T11:44:24Z</time>
      </trkpt>
      <trkpt lat="49.3517" lon="-0.97245">
        <ele>36</ele>
        <time>2019-02-14T11:45:24Z</time>
      </trkpt>
      <trkpt lat="49.35059" lon="-0.96875">
        <ele>37</ele>
        <time>2019-02-14T11:46:24Z</time>
      </trkpt>
      <trkpt lat="49.3496" lon="-0.96899">
        <ele>38</ele>
        <time>2019-02-14T11:47:24Z</time>
      </trkpt>
      <trkpt lat="49.34897" lon="-0.97002">
        <ele>39</ele>
        <time>2019-02-14T11:48:24Z</time>
      </trkpt>
      <trkpt lat="49.34897" lon="-0.97184">
        <ele>36</ele>
        <time>2019-02-14T11:49:24Z</time>
      </trkpt>
      <trkpt lat="49.34747" lon="-0.9716">
        <ele>37</ele>
        <time>2019-02-14T11:50:24Z</time>
      </trkpt>
      <trkpt lat="49.34695" lon="-0.96868">
        <ele>39</ele>
        <time>2019-02-14T11:51:24Z</time>
      </trkpt>
      <trkpt lat="49.34497" lon="-0.96881">
        <ele>37</ele>
        <time>2019-02-14T11:52:24Z</time>
      </trkpt>
      <trkpt lat="49.34399" lon="-0.96783">
        <ele>38</ele>
        <time>2019-02-14T11:53:24Z</time>
      </trkpt>
      <trkpt lat="49.34383" lon="-0.96959">
        <ele>37</ele>
        <time>2019-02-14T11:54:24Z</time>
      </trkpt>
      <trkpt lat="49.34296" lon="-0.96905">
        <ele>37</ele>
        <time>2019-02-14T11:55:24Z</time>
      </trkpt>
      <trkpt lat="49.34343" lon="-0.96741">
        <ele>37</ele>
        <time>2019-02-14T11:56:24Z</time>
      </trkpt>
      <trkpt lat="49.34126" lon="-0.96553">
        <ele>37</ele>
        <time>2019-02-14T11:57:24Z</time>
      </trkpt>
      <trkpt lat="49.3413" lon="-0.96444">
        <ele>36</ele>
        <time>2019-02-14T11:58:24Z</time>
      </trkpt>
      <trkpt lat="49.33991" lon="-0.96353">
        <ele>35</ele>
        <time>2019-02-14T11:59:24Z</time>
      </trkpt>
      <trkpt lat="49.3394" lon="-0.95837">
        <ele>29</ele>
        <time>2019-02-14T12:00:24Z</time>
      </trkpt>
      <trkpt lat="49.33912" lon="-0.95721">
        <ele>30</ele>
        <time>2019-02-14T12:01:24Z</time>
      </trkpt>
      <trkpt lat="49.33904" lon="-0.95533">
        <ele>32</ele>
        <time>2019-02-14T12:02:24Z</time>
      </trkpt>
      <trkpt lat="49.33857" lon="-0.95539">
        <ele>33</ele>
        <time>2019-02-14T12:03:24Z</time>
      </trkpt>
      <trkpt lat="49.33485" lon="-0.94301">
        <ele>34</ele>
        <time>2019-02-14T12:04:24Z</time>
      </trkpt>
      <trkpt lat="49.33327" lon="-0.933">
        <ele>38</ele>
        <time>2019-02-14T12:05:24Z</time>
      </trkpt>
      <trkpt lat="49.33074" lon="-0.92141">
        <ele>32</ele>
        <time>2019-02-14T12:06:24Z</time>
      </trkpt>
      <trkpt lat="49.33212" lon="-0.91843">
        <ele>23</ele>
        <time>2019-02-14T12:07:24Z</time>
      </trkpt>
      <trkpt lat="49.32908" lon="-0.91588">
        <ele>16</ele>
        <time>2019-02-14T12:08:24Z</time>
      </trkpt>
      <trkpt lat="49.33173" lon="-0.91085">
        <ele>24</ele>
        <time>2019-02-14T12:09:24Z</time>
      </trkpt>
      <trkpt lat="49.33275" lon="-0.91018">
        <ele>22</ele>
        <time>2019-02-14T12:10:24Z</time>
      </trkpt>
      <trkpt lat="49.33275" lon="-0.90817">
        <ele>26</ele>
        <time>2019-02-14T12:11:24Z</time>
      </trkpt>
      <trkpt lat="49.33406" lon="-0.9072">
        <ele>23</ele>
        <time>2019-02-14T12:12:24Z</time>
      </trkpt>
      <trkpt lat="49.33453" lon="-0.91">
        <ele>25</ele>
        <time>2019-02-14T12:13:24Z</time>
      </trkpt>
      <trkpt lat="49.33623" lon="-0.90909">
        <ele>29</ele>
        <time>2019-02-14T12:14:24Z</time>
      </trkpt>
      <trkpt lat="49.33936" lon="-0.91078">
        <ele>34</ele>
        <time>2019-02-14T12:15:24Z</time>
      </trkpt>
      <trkpt lat="49.34098" lon="-0.91024">
        <ele>33</ele>
        <time>2019-02-14T12:16:24Z</time>
      </trkpt>
      <trkpt lat="49.33817" lon="-0.90453">
        <ele>25</ele>
        <time>2019-02-14T12:17:24Z</time>
      </trkpt>
      <trkpt lat="49.33612" lon="-0.90198">
        <ele>26</ele>
        <time>2019-02-14T12:18:24Z</time>
      </trkpt>
      <trkpt lat="49.33691" lon="-0.89895">
        <ele>27</ele>
        <time>2019-02-14T12:19:24Z</time>
      </trkpt>
      <trkpt lat="49.33623" lon="-0.89804">
        <ele>29</ele>
        <time>2019-02-14T12:20:24Z</time>
      </trkpt>
      <trkpt lat="49.33505" lon="-0.89616">
        <ele>32</ele>
        <time>2019-02-14T12:21:24Z</time>
      </trkpt>
      <trkpt lat="49.33529" lon="-0.89488">
        <ele>31</ele>
        <time>2019-02-14T12:22:24Z</time>
      </trkpt>
      <trkpt lat="49.33722" lon="-0.89355">
        <ele>30</ele>
        <time>2019-02-14T12:23:24Z</time>
      </trkpt>
      <trkpt lat="49.33572" lon="-0.88784">
        <ele>36</ele>
        <time>2019-02-14T12:24:24Z</time>
      </trkpt>
      <trkpt lat="49.33813" lon="-0.88014">
        <ele>41</ele>
        <time>2019-02-14T12:25:24Z</time>
      </trkpt>
      <trkpt lat="49.34197" lon="-0.87461">
        <ele>69</ele>
        <time>2019-02-14T12:26:24Z</time>
      </trkpt>
      <trkpt lat="49.34181" lon="-0.868">
        <ele>76</ele>
        <time>2019-02-14T12:27:24Z</time>
      </trkpt>
      <trkpt lat="49.34055" lon="-0.86782">
        <ele>75</ele>
        <time>2019-02-14T12:28:24Z</time>
      </trkpt>
      <trkpt lat="49.33845" lon="-0.86241">
        <ele>79</ele>
        <time>2019-02-14T12:29:24Z</time>
      </trkpt>
      <trkpt lat="49.33774" lon="-0.85568">
        <ele>77</ele>
        <time>2019-02-14T12:30:24Z</time>
      </trkpt>
      <trkpt lat="49.33742" lon="-0.85021">
        <ele>75</ele>
        <time>2019-02-14T12:31:24Z</time>
      </trkpt>
      <trkpt lat="49.33683" lon="-0.84767">
        <ele>72</ele>
        <time>2019-02-14T12:32:24Z</time>
      </trkpt>
      <trkpt lat="49.3362" lon="-0.84566">
        <ele>71</ele>
        <time>2019-02-14T12:33:24Z</time>
      </trkpt>
      <trkpt lat="49.33782" lon="-0.84548">
        <ele>78</ele>
        <time>2019-02-14T12:34:24Z</time>
      </trkpt>
      <trkpt lat="49.34062" lon="-0.84633">
        <ele>78</ele>
        <time>2019-02-14T12:35:24Z</time>
      </trkpt>
      <trkpt lat="49.34292" lon="-0.84524">
        <ele>74</ele>
        <time>2019-02-14T12:36:24Z</time>
      </trkpt>
      <trkpt lat="49.34145" lon="-0.83583">
        <ele>74</ele>
        <time>2019-02-14T12:37:24Z</time>
      </trkpt>
      <trkpt lat="49.34086" lon="-0.82521">
        <ele>75</ele>
        <time>2019-02-14T12:38:24Z</time>
      </trkpt>
      <trkpt lat="49.34019" lon="-0.82533">
        <ele>76</ele>
        <time>2019-02-14T12:39:24Z</time>
      </trkpt>
      <trkpt lat="49.34007" lon="-0.81823">
        <ele>72</ele>
        <time>2019-02-14T12:40:24Z</time>
      </trkpt>
      <trkpt lat="49.33936" lon="-0.8138">
        <ele>68</ele>
        <time>2019-02-14T12:41:24Z</time>
      </trkpt>
      <trkpt lat="49.34573" lon="-0.80919">
        <ele>60</ele>
        <time>2019-02-14T12:42:24Z</time>
      </trkpt>
      <trkpt lat="49.34513" lon="-0.8064">
        <ele>64</ele>
        <time>2019-02-14T12:43:24Z</time>
      </trkpt>
      <trkpt lat="49.34612" lon="-0.80573">
        <ele>61</ele>
        <time>2019-02-14T12:44:24Z</time>
      </trkpt>
      <trkpt lat="49.34458" lon="-0.80051">
        <ele>72</ele>
        <time>2019-02-14T12:45:24Z</time>
      </trkpt>
      <trkpt lat="49.34584" lon="-0.79954">
        <ele>69</ele>
        <time>2019-02-14T12:46:24Z</time>
      </trkpt>
      <trkpt lat="49.34367" lon="-0.79389">
        <ele>71</ele>
        <time>2019-02-14T12:47:24Z</time>
      </trkpt>
      <trkpt lat="49.34197" lon="-0.79547">
        <ele>75</ele>
        <time>2019-02-14T12:48:24Z</time>
      </trkpt>
      <trkpt lat="49.34082" lon="-0.79323">
        <ele>73</ele>
        <time>2019-02-14T12:49:24Z</time>
      </trkpt>
      <trkpt lat="49.33952" lon="-0.7942">
        <ele>74</ele>
        <time>2019-02-14T12:50:24Z</time>
      </trkpt>
      <trkpt lat="49.33884" lon="-0.79304">
        <ele>73</ele>
        <time>2019-02-14T12:51:24Z</time>
      </trkpt>
      <trkpt lat="49.33722" lon="-0.79353">
        <ele>73</ele>
        <time>2019-02-14T12:52:24Z</time>
      </trkpt>
      <trkpt lat="49.33679" lon="-0.78436">
        <ele>69</ele>
        <time>2019-02-14T12:53:24Z</time>
      </trkpt>
      <trkpt lat="49.33797" lon="-0.78406">
        <ele>70</ele>
        <time>2019-02-14T12:54:24Z</time>
      </trkpt>
      <trkpt lat="49.33794" lon="-0.78315">
        <ele>70</ele>
        <time>2019-02-14T12:55:24Z</time>
      </trkpt>
      <trkpt lat="49.33904" lon="-0.78266">
        <ele>70</ele>
        <time>2019-02-14T12:56:24Z</time>
      </trkpt>
      <trkpt lat="49.33821" lon="-0.78048">
        <ele>70</ele>
        <time>2019-02-14T12:57:24Z</time>
      </trkpt>
      <trkpt lat="49.3377" lon="-0.77338">
        <ele>58</ele>
        <time>2019-02-14T12:58:24Z</time>
      </trkpt>
      <trkpt lat="49.3356" lon="-0.76658">
        <ele>22</ele>
        <time>2019-02-14T12:59:24Z</time>
      </trkpt>
      <trkpt lat="49.33117" lon="-0.761">
        <ele>20</ele>
        <time>2019-02-14T13:00:24Z</time>
      </trkpt>
      <trkpt lat="49.3301" lon="-0.75778">
        <ele>23</ele>
        <time>2019-02-14T13:01:24Z</time>
      </trkpt>
      <trkpt lat="49.32971" lon="-0.75566">
        <ele>23</ele>
        <time>2019-02-14T13:02:24Z</time>
      </trkpt>
      <trkpt lat="49.32892" lon="-0.75293">
        <ele>25</ele>
        <time>2019-02-14T13:03:24Z</time>
      </trkpt>
      <trkpt lat="49.32805" lon="-0.75196">
        <ele>30</ele>
        <time>2019-02-14T13:04:24Z</time>
      </trkpt>
      <trkpt lat="49.32785" lon="-0.75111">
        <ele>37</ele>
        <time>2019-02-14T13:05:24Z</time>
      </trkpt>
      <trkpt lat="49.32856" lon="-0.75013">
        <ele>36</ele>
        <time>2019-02-14T13:06:24Z</time>
      </trkpt>
      <trkpt lat="49.32825" lon="-0.74218">
        <ele>64</ele>
        <time>2019-02-14T13:07:24Z</time>
      </trkpt>
      <trkpt lat="49.32686" lon="-0.74249">
        <ele>63</ele>
        <time>2019-02-14T13:08:24Z</time>
      </trkpt>
      <trkpt lat="49.32639" lon="-0.7437">
        <ele>60</ele>
        <time>2019-02-14T13:09:24Z</time>
      </trkpt>
      <trkpt lat="49.32508" lon="-0.74346">
        <ele>30</ele>
        <time>2019-02-14T13:10:24Z</time>
      </trkpt>
      <trkpt lat="49.32651" lon="-0.73897">
        <ele>27</ele>
        <time>2019-02-14T13:11:24Z</time>
      </trkpt>
      <trkpt lat="49.32726" lon="-0.72992">
        <ele>24</ele>
        <time>2019-02-14T13:12:24Z</time>
      </trkpt>
      <trkpt lat="49.32844" lon="-0.72628">
        <ele>26</ele>
        <time>2019-02-14T13:13:24Z</time>
      </trkpt>
      <trkpt lat="49.32789" lon="-0.72543">
        <ele>24</ele>
        <time>2019-02-14T13:14:24Z</time>
      </trkpt>
      <trkpt lat="49.33026" lon="-0.71815">
        <ele>36</ele>
        <time>2019-02-14T13:15:24Z</time>
      </trkpt>
      <trkpt lat="49.33181" lon="-0.70832">
        <ele>32</ele>
        <time>2019-02-14T13:16:24Z</time>
      </trkpt>
      <trkpt lat="49.33533" lon="-0.70632">
        <ele>57</ele>
        <time>2019-02-14T13:17:24Z</time>
      </trkpt>
      <trkpt lat="49.33671" lon="-0.70674">
        <ele>56</ele>
        <time>2019-02-14T13:18:24Z</time>
      </trkpt>
      <trkpt lat="49.34304" lon="-0.70437">
        <ele>68</ele>
        <time>2019-02-14T13:19:24Z</time>
      </trkpt>
      <trkpt lat="49.34296" lon="-0.70346">
        <ele>68</ele>
        <time>2019-02-14T13:20:24Z</time>
      </trkpt>
      <trkpt lat="49.34458" lon="-0.70261">
        <ele>59</ele>
        <time>2019-02-14T13:21:24Z</time>
      </trkpt>
      <trkpt lat="49.34446" lon="-0.6983">
        <ele>65</ele>
        <time>2019-02-14T13:22:24Z</time>
      </trkpt>
      <trkpt lat="49.34256" lon="-0.69885">
        <ele>70</ele>
        <time>2019-02-14T13:23:24Z</time>
      </trkpt>
      <trkpt lat="49.34335" lon="-0.69484">
        <ele>73</ele>
        <time>2019-02-14T13:24:24Z</time>
      </trkpt>
      <trkpt lat="49.34316" lon="-0.6909">
        <ele>69</ele>
        <time>2019-02-14T13:25:24Z</time>
      </trkpt>
      <trkpt lat="49.34217" lon="-0.6909">
        <ele>69</ele>
        <time>2019-02-14T13:26:24Z</time>
      </trkpt>
      <trkpt lat="49.34122" lon="-0.68592">
        <ele>67</ele>
        <time>2019-02-14T13:27:24Z</time>
      </trkpt>
      <trkpt lat="49.33825" lon="-0.68793">
        <ele>64</ele>
        <time>2019-02-14T13:28:24Z</time>
      </trkpt>
      <trkpt lat="49.33588" lon="-0.67548">
        <ele>63</ele>
        <time>2019-02-14T13:29:24Z</time>
      </trkpt>
      <trkpt lat="49.33256" lon="-0.67785">
        <ele>60</ele>
        <time>2019-02-14T13:30:24Z</time>
      </trkpt>
      <trkpt lat="49.33094" lon="-0.68028">
        <ele>56</ele>
        <time>2019-02-14T13:31:24Z</time>
      </trkpt>
      <trkpt lat="49.32967" lon="-0.68082">
        <ele>57</ele>
        <time>2019-02-14T13:32:24Z</time>
      </trkpt>
      <trkpt lat="49.32813" lon="-0.68034">
        <ele>57</ele>
        <time>2019-02-14T13:33:24Z</time>
      </trkpt>
      <trkpt lat="49.32809" lon="-0.67712">
        <ele>62</ele>
        <time>2019-02-14T13:34:24Z</time>
      </trkpt>
      <trkpt lat="49.32864" lon="-0.66869">
        <ele>68</ele>
        <time>2019-02-14T13:35:24Z</time>
      </trkpt>
      <trkpt lat="49.32651" lon="-0.66237">
        <ele>70</ele>
        <time>2019-02-14T13:36:24Z</time>
      </trkpt>
      <trkpt lat="49.32923" lon="-0.65964">
        <ele>66</ele>
        <time>2019-02-14T13:37:24Z</time>
      </trkpt>
      <trkpt lat="49.32919" lon="-0.65667">
        <ele>65</ele>
        <time>2019-02-14T13:38:24Z</time>
      </trkpt>
      <trkpt lat="49.32939" lon="-0.65491">
        <ele>65</ele>
        <time>2019-02-14T13:39:24Z</time>
      </trkpt>
      <trkpt lat="49.32753" lon="-0.6509">
        <ele>67</ele>
        <time>2019-02-14T13:40:24Z</time>
      </trkpt>
      <trkpt lat="49.32825" lon="-0.64878">
        <ele>66</ele>
        <time>2019-02-14T13:41:24Z</time>
      </trkpt>
      <trkpt lat="49.32714" lon="-0.64635">
        <ele>63</ele>
        <time>2019-02-14T13:42:24Z</time>
      </trkpt>
      <trkpt lat="49.32864" lon="-0.6438">
        <ele>62</ele>
        <time>2019-02-14T13:43:24Z</time>
      </trkpt>
      <trkpt lat="49.32722" lon="-0.64131">
        <ele>58</ele>
        <time>2019-02-14T13:44:24Z</time>
      </trkpt>
      <trkpt lat="49.32682" lon="-0.6401">
        <ele>58</ele>
        <time>2019-02-14T13:45:24Z</time>
      </trkpt>
      <trkpt lat="49.32769" lon="-0.63937">
        <ele>60</ele>
        <time>2019-02-14T13:46:24Z</time>
      </trkpt>
      <trkpt lat="49.3254" lon="-0.63537">
        <ele>55</ele>
        <time>2019-02-14T13:47:24Z</time>
      </trkpt>
      <trkpt lat="49.32362" lon="-0.63446">
        <ele>55</ele>
        <time>2019-02-14T13:48:24Z</time>
      </trkpt>
      <trkpt lat="49.32124" lon="-0.62984">
        <ele>53</ele>
        <time>2019-02-14T13:49:24Z</time>
      </trkpt>
      <trkpt lat="49.32164" lon="-0.62839">
        <ele>57</ele>
        <time>2019-02-14T13:50:24Z</time>
      </trkpt>
      <trkpt lat="49.32061" lon="-0.62796">
        <ele>50</ele>
        <time>2019-02-14T13:51:24Z</time>
      </trkpt>
      <trkpt lat="49.32144" lon="-0.62645">
        <ele>54</ele>
        <time>2019-02-14T13:52:24Z</time>
      </trkpt>
      <trkpt lat="49.31855" lon="-0.62693">
        <ele>53</ele>
        <time>2019-02-14T13:53:24Z</time>
      </trkpt>
      <trkpt lat="49.32291" lon="-0.61734">
        <ele>54</ele>
        <time>2019-02-14T13:54:24Z</time>
      </trkpt>
      <trkpt lat="49.32734" lon="-0.60806">
        <ele>50</ele>
        <time>2019-02-14T13:55:24Z</time>
      </trkpt>
      <trkpt lat="49.33121" lon="-0.60551">
        <ele>22</ele>
        <time>2019-02-14T13:56:24Z</time>
      </trkpt>
      <trkpt lat="49.33078" lon="-0.60356">
        <ele>25</ele>
        <time>2019-02-14T13:57:24Z</time>
      </trkpt>
      <trkpt lat="49.33272" lon="-0.60271">
        <ele>19</ele>
        <time>2019-02-14T13:58:24Z</time>
      </trkpt>
      <trkpt lat="49.33232" lon="-0.60114">
        <ele>18</ele>
        <time>2019-02-14T13:59:24Z</time>
      </trkpt>
      <trkpt lat="49.33303" lon="-0.59652">
        <ele>17</ele>
        <time>2019-02-14T14:00:24Z</time>
      </trkpt>
      <trkpt lat="49.33287" lon="-0.59276">
        <ele>18</ele>
        <time>2019-02-14T14:01:24Z</time>
      </trkpt>
      <trkpt lat="49.3339" lon="-0.59276">
        <ele>18</ele>
        <time>2019-02-14T14:02:24Z</time>
      </trkpt>
      <trkpt lat="49.33513" lon="-0.58602">
        <ele>10</ele>
        <time>2019-02-14T14:03:24Z</time>
      </trkpt>
      <trkpt lat="49.33521" lon="-0.58317">
        <ele>8</ele>
        <time>2019-02-14T14:04:24Z</time>
      </trkpt>
      <trkpt lat="49.33536" lon="-0.58159">
        <ele>13</ele>
        <time>2019-02-14T14:05:24Z</time>
      </trkpt>
      <trkpt lat="49.33173" lon="-0.58226">
        <ele>15</ele>
        <time>2019-02-14T14:06:24Z</time>
      </trkpt>
      <trkpt lat="49.33184" lon="-0.5842">
        <ele>11</ele>
        <time>2019-02-14T14:07:24Z</time>
      </trkpt>
      <trkpt lat="49.32864" lon="-0.58402">
        <ele>12</ele>
        <time>2019-02-14T14:08:24Z</time>
      </trkpt>
      <trkpt lat="49.32227" lon="-0.58475">
        <ele>17</ele>
        <time>2019-02-14T14:09:24Z</time>
      </trkpt>
      <trkpt lat="49.31792" lon="-0.58463">
        <ele>20</ele>
        <time>2019-02-14T14:10:24Z</time>
      </trkpt>
      <trkpt lat="49.31357" lon="-0.58536">
        <ele>30</ele>
        <time>2019-02-14T14:11:24Z</time>
      </trkpt>
      <trkpt lat="49.31274" lon="-0.58609">
        <ele>31</ele>
        <time>2019-02-14T14:12:24Z</time>
      </trkpt>
      <trkpt lat="49.31119" lon="-0.58487">
        <ele>41</ele>
        <time>2019-02-14T14:13:24Z</time>
      </trkpt>
      <trkpt lat="49.31013" lon="-0.58402">
        <ele>54</ele>
        <time>2019-02-14T14:14:24Z</time>
      </trkpt>
      <trkpt lat="49.30878" lon="-0.58487">
        <ele>58</ele>
        <time>2019-02-14T14:15:24Z</time>
      </trkpt>
      <trkpt lat="49.30635" lon="-0.58166">
        <ele>64</ele>
        <time>2019-02-14T14:16:24Z</time>
      </trkpt>
      <trkpt lat="49.30651" lon="-0.57742">
        <ele>63</ele>
        <time>2019-02-14T14:17:24Z</time>
      </trkpt>
      <trkpt lat="49.30518" lon="-0.57548">
        <ele>60</ele>
        <time>2019-02-14T14:18:24Z</time>
      </trkpt>
      <trkpt lat="49.30318" lon="-0.57257">
        <ele>60</ele>
        <time>2019-02-14T14:19:24Z</time>
      </trkpt>
      <trkpt lat="49.30045" lon="-0.57053">
        <ele>61</ele>
        <time>2019-02-14T14:20:24Z</time>
      </trkpt>
      <trkpt lat="49.29709" lon="-0.56982">
        <ele>60</ele>
        <time>2019-02-14T14:21:24Z</time>
      </trkpt>
      <trkpt lat="49.2903" lon="-0.57023">
        <ele>50</ele>
        <time>2019-02-14T14:22:24Z</time>
      </trkpt>
      <trkpt lat="49.29003" lon="-0.57053">
        <ele>49</ele>
        <time>2019-02-14T14:23:24Z</time>
      </trkpt>
      <trkpt lat="49.28335" lon="-0.56813">
        <ele>38</ele>
        <time>2019-02-14T14:24:24Z</time>
      </trkpt>
      <trkpt lat="49.28195" lon="-0.56665">
        <ele>20</ele>
        <time>2019-02-14T14:25:24Z</time>
      </trkpt>
      <trkpt lat="49.28105" lon="-0.5664">
        <ele>16</ele>
        <time>2019-02-14T14:26:24Z</time>
      </trkpt>
      <trkpt lat="49.27892" lon="-0.56671">
        <ele>16</ele>
        <time>2019-02-14T14:27:24Z</time>
      </trkpt>
      <trkpt lat="49.27842" lon="-0.56614">
        <ele>17</ele>
        <time>2019-02-14T14:28:24Z</time>
      </trkpt>
      <trkpt lat="49.27775" lon="-0.56696">
        <ele>18</ele>
        <time>2019-02-14T14:29:24Z</time>
      </trkpt>
      <trkpt lat="49.27735" lon="-0.56619">
        <ele>20</ele>
        <time>2019-02-14T14:30:24Z</time>
      </trkpt>
      <trkpt lat="49.27628" lon="-0.56666">
        <ele>22</ele>
        <time>2019-02-14T14:31:24Z</time>
      </trkpt>
      <trkpt lat="49.27628" lon="-0.56788">
        <ele>20</ele>
        <time>2019-02-14T14:32:24Z</time>
      </trkpt>
      <trkpt lat="49.27442" lon="-0.56897">
        <ele>20</ele>
        <time>2019-02-14T14:33:24Z</time>
      </trkpt>
      <trkpt lat="49.27165" lon="-0.56487">
        <ele>32</ele>
        <time>2019-02-14T14:34:24Z</time>
      </trkpt>
      <trkpt lat="49.26989" lon="-0.56334">
        <ele>28</ele>
        <time>2019-02-14T14:35:24Z</time>
      </trkpt>
      <trkpt lat="49.26926" lon="-0.56155">
        <ele>34</ele>
        <time>2019-02-14T14:36:24Z</time>
      </trkpt>
      <trkpt lat="49.27016" lon="-0.55987">
        <ele>31</ele>
        <time>2019-02-14T14:37:24Z</time>
      </trkpt>
      <trkpt lat="49.26876" lon="-0.55874">
        <ele>43</ele>
        <time>2019-02-14T14:38:24Z</time>
      </trkpt>
      <trkpt lat="49.26836" lon="-0.55839">
        <ele>46</ele>
        <time>2019-02-14T14:39:24Z</time>
      </trkpt>
      <trkpt lat="49.2673" lon="-0.55073">
        <ele>51</ele>
        <time>2019-02-14T14:40:24Z</time>
      </trkpt>
      <trkpt lat="49.26756" lon="-0.53996">
        <ele>51</ele>
        <time>2019-02-14T14:41:24Z</time>
      </trkpt>
      <trkpt lat="49.2686" lon="-0.537">
        <ele>48</ele>
        <time>2019-02-14T14:42:24Z</time>
      </trkpt>
      <trkpt lat="49.27069" lon="-0.52322">
        <ele>39</ele>
        <time>2019-02-14T14:43:24Z</time>
      </trkpt>
      <trkpt lat="49.26986" lon="-0.522">
        <ele>37</ele>
        <time>2019-02-14T14:44:24Z</time>
      </trkpt>
      <trkpt lat="49.26916" lon="-0.52414">
        <ele>34</ele>
        <time>2019-02-14T14:45:24Z</time>
      </trkpt>
      <trkpt lat="49.2685" lon="-0.52414">
        <ele>38</ele>
        <time>2019-02-14T14:46:24Z</time>
      </trkpt>
      <trkpt lat="49.26786" lon="-0.52659">
        <ele>38</ele>
        <time>2019-02-14T14:47:24Z</time>
      </trkpt>
      <trkpt lat="49.26626" lon="-0.52669">
        <ele>42</ele>
        <time>2019-02-14T14:48:24Z</time>
      </trkpt>
      <trkpt lat="49.267" lon="-0.51878">
        <ele>32</ele>
        <time>2019-02-14T14:49:24Z</time>
      </trkpt>
      <trkpt lat="49.2667" lon="-0.51792">
        <ele>34</ele>
        <time>2019-02-14T14:50:24Z</time>
      </trkpt>
      <trkpt lat="49.2621" lon="-0.51914">
        <ele>43</ele>
        <time>2019-02-14T14:51:24Z</time>
      </trkpt>
      <trkpt lat="49.25717" lon="-0.52506">
        <ele>39</ele>
        <time>2019-02-14T14:52:24Z</time>
      </trkpt>
      <trkpt lat="49.25484" lon="-0.52164">
        <ele>24</ele>
        <time>2019-02-14T14:53:24Z</time>
      </trkpt>
      <trkpt lat="49.25421" lon="-0.52037">
        <ele>23</ele>
        <time>2019-02-14T14:54:24Z</time>
      </trkpt>
      <trkpt lat="49.25284" lon="-0.5195">
        <ele>23</ele>
        <time>2019-02-14T14:55:24Z</time>
      </trkpt>
      <trkpt lat="49.25264" lon="-0.51689">
        <ele>34</ele>
        <time>2019-02-14T14:56:24Z</time>
      </trkpt>
      <trkpt lat="49.25158" lon="-0.51832">
        <ele>32</ele>
        <time>2019-02-14T14:57:24Z</time>
      </trkpt>
      <trkpt lat="49.24864" lon="-0.52123">
        <ele>35</ele>
        <time>2019-02-14T14:58:24Z</time>
      </trkpt>
      <trkpt lat="49.24771" lon="-0.5219">
        <ele>32</ele>
        <time>2019-02-14T14:59:24Z</time>
      </trkpt>
      <trkpt lat="49.24711" lon="-0.5219">
        <ele>31</ele>
        <time>2019-02-14T15:00:24Z</time>
      </trkpt>
      <trkpt lat="49.24671" lon="-0.52307">
        <ele>28</ele>
        <time>2019-02-14T15:01:24Z</time>
      </trkpt>
      <trkpt lat="49.24745" lon="-0.52373">
        <ele>29</ele>
        <time>2019-02-14T15:02:24Z</time>
      </trkpt>
      <trkpt lat="49.24705" lon="-0.5244">
        <ele>31</ele>
        <time>2019-02-14T15:03:24Z</time>
      </trkpt>
      <trkpt lat="49.24655" lon="-0.52649">
        <ele>38</ele>
        <time>2019-02-14T15:04:24Z</time>
      </trkpt>
      <trkpt lat="49.24711" lon="-0.52741">
        <ele>38</ele>
        <time>2019-02-14T15:05:24Z</time>
      </trkpt>
      <trkpt lat="49.24561" lon="-0.53052">
        <ele>47</ele>
        <time>2019-02-14T15:06:24Z</time>
      </trkpt>
      <trkpt lat="49.24421" lon="-0.53266">
        <ele>52</ele>
        <time>2019-02-14T15:07:24Z</time>
      </trkpt>
      <trkpt lat="49.24638" lon="-0.53486">
        <ele>44</ele>
        <time>2019-02-14T15:08:24Z</time>
      </trkpt>
      <trkpt lat="49.24828" lon="-0.53813">
        <ele>40</ele>
        <time>2019-02-14T15:09:24Z</time>
      </trkpt>
      <trkpt lat="49.24988" lon="-0.53568">
        <ele>43</ele>
        <time>2019-02-14T15:10:24Z</time>
      </trkpt>
      <trkpt lat="49.25031" lon="-0.53639">
        <ele>47</ele>
        <time>2019-02-14T15:11:24Z</time>
      </trkpt>
      <trkpt lat="49.24757" lon="-0.55185">
        <ele>60</ele>
        <time>2019-02-14T15:12:24Z</time>
      </trkpt>
      <trkpt lat="49.24828" lon="-0.55226">
        <ele>61</ele>
        <time>2019-02-14T15:13:24Z</time>
      </trkpt>
      <trkpt lat="49.24711" lon="-0.55512">
        <ele>62</ele>
        <time>2019-02-14T15:14:24Z</time>
      </trkpt>
      <trkpt lat="49.24981" lon="-0.55936">
        <ele>65</ele>
        <time>2019-02-14T15:15:24Z</time>
      </trkpt>
      <trkpt lat="49.25104" lon="-0.56242">
        <ele>60</ele>
        <time>2019-02-14T15:16:24Z</time>
      </trkpt>
      <trkpt lat="49.25031" lon="-0.56354">
        <ele>60</ele>
        <time>2019-02-14T15:17:24Z</time>
      </trkpt>
      <trkpt lat="49.25158" lon="-0.56538">
        <ele>52</ele>
        <time>2019-02-14T15:18:24Z</time>
      </trkpt>
      <trkpt lat="49.25101" lon="-0.56665">
        <ele>53</ele>
        <time>2019-02-14T15:19:24Z</time>
      </trkpt>
      <trkpt lat="49.24904" lon="-0.56849">
        <ele>56</ele>
        <time>2019-02-14T15:20:24Z</time>
      </trkpt>
      <trkpt lat="49.24618" lon="-0.5714">
        <ele>62</ele>
        <time>2019-02-14T15:21:24Z</time>
      </trkpt>
      <trkpt lat="49.24261" lon="-0.57737">
        <ele>67</ele>
        <time>2019-02-14T15:22:24Z</time>
      </trkpt>
      <trkpt lat="49.24541" lon="-0.58431">
        <ele>67</ele>
        <time>2019-02-14T15:23:24Z</time>
      </trkpt>
      <trkpt lat="49.24725" lon="-0.5886">
        <ele>73</ele>
        <time>2019-02-14T15:24:24Z</time>
      </trkpt>
      <trkpt lat="49.25001" lon="-0.5935">
        <ele>66</ele>
        <time>2019-02-14T15:25:24Z</time>
      </trkpt>
      <trkpt lat="49.24991" lon="-0.59416">
        <ele>65</ele>
        <time>2019-02-14T15:26:24Z</time>
      </trkpt>
      <trkpt lat="49.25201" lon="-0.59692">
        <ele>50</ele>
        <time>2019-02-14T15:27:24Z</time>
      </trkpt>
      <trkpt lat="49.25606" lon="-0.59911">
        <ele>43</ele>
        <time>2019-02-14T15:28:24Z</time>
      </trkpt>
      <trkpt lat="49.25934" lon="-0.59646">
        <ele>41</ele>
        <time>2019-02-14T15:29:24Z</time>
      </trkpt>
      <trkpt lat="49.26184" lon="-0.60616">
        <ele>45</ele>
        <time>2019-02-14T15:30:24Z</time>
      </trkpt>
      <trkpt lat="49.2651" lon="-0.6156">
        <ele>44</ele>
        <time>2019-02-14T15:31:24Z</time>
      </trkpt>
      <trkpt lat="49.26626" lon="-0.61825">
        <ele>36</ele>
        <time>2019-02-14T15:32:24Z</time>
      </trkpt>
      <trkpt lat="49.2664" lon="-0.61942">
        <ele>37</ele>
        <time>2019-02-14T15:33:24Z</time>
      </trkpt>
      <trkpt lat="49.26597" lon="-0.61978">
        <ele>39</ele>
        <time>2019-02-14T15:34:24Z</time>
      </trkpt>
      <trkpt lat="49.2684" lon="-0.62662">
        <ele>23</ele>
        <time>2019-02-14T15:35:24Z</time>
      </trkpt>
      <trkpt lat="49.2658" lon="-0.63453">
        <ele>45</ele>
        <time>2019-02-14T15:36:24Z</time>
      </trkpt>
      <trkpt lat="49.2631" lon="-0.63662">
        <ele>50</ele>
        <time>2019-02-14T15:37:24Z</time>
      </trkpt>
      <trkpt lat="49.2628" lon="-0.63535">
        <ele>45</ele>
        <time>2019-02-14T15:38:24Z</time>
      </trkpt>
      <trkpt lat="49.2608" lon="-0.63458">
        <ele>32</ele>
        <time>2019-02-14T15:39:24Z</time>
      </trkpt>
      <trkpt lat="49.261" lon="-0.63519">
        <ele>36</ele>
        <time>2019-02-14T15:40:24Z</time>
      </trkpt>
      <trkpt lat="49.25704" lon="-0.63555">
        <ele>39</ele>
        <time>2019-02-14T15:41:24Z</time>
      </trkpt>
      <trkpt lat="49.25417" lon="-0.63514">
        <ele>41</ele>
        <time>2019-02-14T15:42:24Z</time>
      </trkpt>
      <trkpt lat="49.25271" lon="-0.63632">
        <ele>40</ele>
        <time>2019-02-14T15:43:24Z</time>
      </trkpt>
      <trkpt lat="49.25234" lon="-0.63545">
        <ele>32</ele>
        <time>2019-02-14T15:44:24Z</time>
      </trkpt>
      <trkpt lat="49.25178" lon="-0.63606">
        <ele>32</ele>
        <time>2019-02-14T15:45:24Z</time>
      </trkpt>
      <trkpt lat="49.25121" lon="-0.63555">
        <ele>29</ele>
        <time>2019-02-14T15:46:24Z</time>
      </trkpt>
      <trkpt lat="49.24998" lon="-0.63683">
        <ele>31</ele>
        <time>2019-02-14T15:47:24Z</time>
      </trkpt>
      <trkpt lat="49.24741" lon="-0.63805">
        <ele>36</ele>
        <time>2019-02-14T15:48:24Z</time>
      </trkpt>
      <trkpt lat="49.24481" lon="-0.63984">
        <ele>38</ele>
        <time>2019-02-14T15:49:24Z</time>
      </trkpt>
      <trkpt lat="49.24275" lon="-0.63933">
        <ele>48</ele>
        <time>2019-02-14T15:50:24Z</time>
      </trkpt>
      <trkpt lat="49.24241" lon="-0.64214">
        <ele>57</ele>
        <time>2019-02-14T15:51:24Z</time>
      </trkpt>
      <trkpt lat="49.24131" lon="-0.64198">
        <ele>60</ele>
        <time>2019-02-14T15:52:24Z</time>
      </trkpt>
      <trkpt lat="49.24108" lon="-0.64367">
        <ele>60</ele>
        <time>2019-02-14T15:53:24Z</time>
      </trkpt>
      <trkpt lat="49.23882" lon="-0.64351">
        <ele>63</ele>
        <time>2019-02-14T15:54:24Z</time>
      </trkpt>
      <trkpt lat="49.23755" lon="-0.6451">
        <ele>62</ele>
        <time>2019-02-14T15:55:24Z</time>
      </trkpt>
      <trkpt lat="49.23498" lon="-0.64193">
        <ele>65</ele>
        <time>2019-02-14T15:56:24Z</time>
      </trkpt>
      <trkpt lat="49.23608" lon="-0.63693">
        <ele>55</ele>
        <time>2019-02-14T15:57:24Z</time>
      </trkpt>
      <trkpt lat="49.23595" lon="-0.63315">
        <ele>48</ele>
        <time>2019-02-14T15:58:24Z</time>
      </trkpt>
      <trkpt lat="49.23525" lon="-0.63208">
        <ele>46</ele>
        <time>2019-02-14T15:59:24Z</time>
      </trkpt>
      <trkpt lat="49.23442" lon="-0.62774">
        <ele>33</ele>
        <time>2019-02-14T16:00:24Z</time>
      </trkpt>
      <trkpt lat="49.23468" lon="-0.62703">
        <ele>34</ele>
        <time>2019-02-14T16:01:24Z</time>
      </trkpt>
      <trkpt lat="49.23418" lon="-0.62575">
        <ele>39</ele>
        <time>2019-02-14T16:02:24Z</time>
      </trkpt>
      <trkpt lat="49.23375" lon="-0.62611">
        <ele>40</ele>
        <time>2019-02-14T16:03:24Z</time>
      </trkpt>
      <trkpt lat="49.23472" lon="-0.6209">
        <ele>53</ele>
        <time>2019-02-14T16:04:24Z</time>
      </trkpt>
      <trkpt lat="49.23504" lon="-0.61914">
        <ele>55</ele>
        <time>2019-02-14T16:05:24Z</time>
      </trkpt>
      <trkpt lat="49.23282" lon="-0.61661">
        <ele>53</ele>
        <time>2019-02-14T16:06:24Z</time>
      </trkpt>
      <trkpt lat="49.23024" lon="-0.61957">
        <ele>46</ele>
        <time>2019-02-14T16:07:24Z</time>
      </trkpt>
      <trkpt lat="49.2259" lon="-0.62377">
        <ele>39</ele>
        <time>2019-02-14T16:08:24Z</time>
      </trkpt>
      <trkpt lat="49.22472" lon="-0.6239">
        <ele>37</ele>
        <time>2019-02-14T16:09:24Z</time>
      </trkpt>
      <trkpt lat="49.22397" lon="-0.62326">
        <ele>43</ele>
        <time>2019-02-14T16:10:24Z</time>
      </trkpt>
      <trkpt lat="49.21912" lon="-0.62386">
        <ele>48</ele>
        <time>2019-02-14T16:11:24Z</time>
      </trkpt>
      <trkpt lat="49.21856" lon="-0.62871">
        <ele>42</ele>
        <time>2019-02-14T16:12:24Z</time>
      </trkpt>
      <trkpt lat="49.21783" lon="-0.62935">
        <ele>42</ele>
        <time>2019-02-14T16:13:24Z</time>
      </trkpt>
      <trkpt lat="49.21797" lon="-0.6315">
        <ele>50</ele>
        <time>2019-02-14T16:14:24Z</time>
      </trkpt>
      <trkpt lat="49.21177" lon="-0.62983">
        <ele>49</ele>
        <time>2019-02-14T16:15:24Z</time>
      </trkpt>
      <trkpt lat="49.21166" lon="-0.63034">
        <ele>49</ele>
        <time>2019-02-14T16:16:24Z</time>
      </trkpt>
      <trkpt lat="49.21015" lon="-0.62983">
        <ele>45</ele>
        <time>2019-02-14T16:17:24Z</time>
      </trkpt>
      <trkpt lat="49.20827" lon="-0.6285">
        <ele>40</ele>
        <time>2019-02-14T16:18:24Z</time>
      </trkpt>
      <trkpt lat="49.20597" lon="-0.63034">
        <ele>43</ele>
        <time>2019-02-14T16:19:24Z</time>
      </trkpt>
      <trkpt lat="49.20482" lon="-0.62944">
        <ele>50</ele>
        <time>2019-02-14T16:20:24Z</time>
      </trkpt>
      <trkpt lat="49.20297" lon="-0.62957">
        <ele>45</ele>
        <time>2019-02-14T16:21:24Z</time>
      </trkpt>
      <trkpt lat="49.1993" lon="-0.62738">
        <ele>47</ele>
        <time>2019-02-14T16:22:24Z</time>
      </trkpt>
      <trkpt lat="49.19895" lon="-0.62781">
        <ele>46</ele>
        <time>2019-02-14T16:23:24Z</time>
      </trkpt>
      <trkpt lat="49.1991" lon="-0.62922">
        <ele>42</ele>
        <time>2019-02-14T16:24:24Z</time>
      </trkpt>
      <trkpt lat="49.19509" lon="-0.6342">
        <ele>50</ele>
        <time>2019-02-14T16:25:24Z</time>
      </trkpt>
      <trkpt lat="49.19366" lon="-0.63648">
        <ele>56</ele>
        <time>2019-02-14T16:26:24Z</time>
      </trkpt>
      <trkpt lat="49.19245" lon="-0.6391">
        <ele>68</ele>
        <time>2019-02-14T16:27:24Z</time>
      </trkpt>
      <trkpt lat="49.19158" lon="-0.63879">
        <ele>70</ele>
        <time>2019-02-14T16:28:24Z</time>
      </trkpt>
      <trkpt lat="49.19119" lon="-0.64064">
        <ele>74</ele>
        <time>2019-02-14T16:29:24Z</time>
      </trkpt>
      <trkpt lat="49.18895" lon="-0.65197">
        <ele>81</ele>
        <time>2019-02-14T16:30:24Z</time>
      </trkpt>
      <trkpt lat="49.18869" lon="-0.65583">
        <ele>80</ele>
        <time>2019-02-14T16:31:24Z</time>
      </trkpt>
      <trkpt lat="49.1867" lon="-0.65682">
        <ele>80</ele>
        <time>2019-02-14T16:32:24Z</time>
      </trkpt>
      <trkpt lat="49.18331" lon="-0.66128">
        <ele>81</ele>
        <time>2019-02-14T16:33:24Z</time>
      </trkpt>
      <trkpt lat="49.18223" lon="-0.6642">
        <ele>82</ele>
        <time>2019-02-14T16:34:24Z</time>
      </trkpt>
      <trkpt lat="49.1795" lon="-0.66723">
        <ele>80</ele>
        <time>2019-02-14T16:35:24Z</time>
      </trkpt>
      <trkpt lat="49.17827" lon="-0.67372">
        <ele>83</ele>
        <time>2019-02-14T16:36:24Z</time>
      </trkpt>
      <trkpt lat="49.1762" lon="-0.67488">
        <ele>83</ele>
        <time>2019-02-14T16:37:24Z</time>
      </trkpt>
      <trkpt lat="49.17434" lon="-0.67737">
        <ele>85</ele>
        <time>2019-02-14T16:38:24Z</time>
      </trkpt>
      <trkpt lat="49.17291" lon="-0.68198">
        <ele>94</ele>
        <time>2019-02-14T16:39:24Z</time>
      </trkpt>
      <trkpt lat="49.17005" lon="-0.67821">
        <ele>99</ele>
        <time>2019-02-14T16:40:24Z</time>
      </trkpt>
      <trkpt lat="49.16612" lon="-0.68107">
        <ele>113</ele>
        <time>2019-02-14T16:41:24Z</time>
      </trkpt>
      <trkpt lat="49.16811" lon="-0.68962">
        <ele>109</ele>
        <time>2019-02-14T16:42:24Z</time>
      </trkpt>
      <trkpt lat="49.16668" lon="-0.69072">
        <ele>111</ele>
        <time>2019-02-14T16:43:24Z</time>
      </trkpt>
      <trkpt lat="49.16628" lon="-0.68956">
        <ele>112</ele>
        <time>2019-02-14T16:44:24Z</time>
      </trkpt>
      <trkpt lat="49.16343" lon="-0.69157">
        <ele>122</ele>
        <time>2019-02-14T16:45:24Z</time>
      </trkpt>
      <trkpt lat="49.16259" lon="-0.69308">
        <ele>121</ele>
        <time>2019-02-14T16:46:24Z</time>
      </trkpt>
      <trkpt lat="49.15946" lon="-0.68896">
        <ele>125</ele>
        <time>2019-02-14T16:47:24Z</time>
      </trkpt>
      <trkpt lat="49.15755" lon="-0.68799">
        <ele>125</ele>
        <time>2019-02-14T16:48:24Z</time>
      </trkpt>
      <trkpt lat="49.15553" lon="-0.68683">
        <ele>126</ele>
        <time>2019-02-14T16:49:24Z</time>
      </trkpt>
      <trkpt lat="49.15326" lon="-0.68926">
        <ele>119</ele>
        <time>2019-02-14T16:50:24Z</time>
      </trkpt>
      <trkpt lat="49.15664" lon="-0.69175">
        <ele>111</ele>
        <time>2019-02-14T16:51:24Z</time>
      </trkpt>
      <trkpt lat="49.16049" lon="-0.69648">
        <ele>105</ele>
        <time>2019-02-14T16:52:24Z</time>
      </trkpt>
      <trkpt lat="49.15938" lon="-0.69782">
        <ele>94</ele>
        <time>2019-02-14T16:53:24Z</time>
      </trkpt>
      <trkpt lat="49.15584" lon="-0.69484">
        <ele>93</ele>
        <time>2019-02-14T16:54:24Z</time>
      </trkpt>
      <trkpt lat="49.15513" lon="-0.69794">
        <ele>86</ele>
        <time>2019-02-14T16:55:24Z</time>
      </trkpt>
      <trkpt lat="49.15366" lon="-0.69836">
        <ele>92</ele>
        <time>2019-02-14T16:56:24Z</time>
      </trkpt>
      <trkpt lat="49.14576" lon="-0.70395">
        <ele>106</ele>
        <time>2019-02-14T16:57:24Z</time>
      </trkpt>
      <trkpt lat="49.14493" lon="-0.70225">
        <ele>107</ele>
        <time>2019-02-14T16:58:24Z</time>
      </trkpt>
      <trkpt lat="49.14286" lon="-0.70425">
        <ele>112</ele>
        <time>2019-02-14T16:59:24Z</time>
      </trkpt>
      <trkpt lat="49.14147" lon="-0.70237">
        <ele>116</ele>
        <time>2019-02-14T17:00:24Z</time>
      </trkpt>
      <trkpt lat="49.13711" lon="-0.7071">
        <ele>136</ele>
        <time>2019-02-14T17:01:24Z</time>
      </trkpt>
      <trkpt lat="49.13912" lon="-0.71117">
        <ele>121</ele>
        <time>2019-02-14T17:02:24Z</time>
      </trkpt>
      <trkpt lat="49.14088" lon="-0.72058">
        <ele>130</ele>
        <time>2019-02-14T17:03:24Z</time>
      </trkpt>
      <trkpt lat="49.13846" lon="-0.72598">
        <ele>125</ele>
        <time>2019-02-14T17:04:24Z</time>
      </trkpt>
      <trkpt lat="49.13965" lon="-0.72701">
        <ele>125</ele>
        <time>2019-02-14T17:05:24Z</time>
      </trkpt>
      <trkpt lat="49.14143" lon="-0.72531">
        <ele>130</ele>
        <time>2019-02-14T17:06:24Z</time>
      </trkpt>
      <trkpt lat="49.14465" lon="-0.73454">
        <ele>114</ele>
        <time>2019-02-14T17:07:24Z</time>
      </trkpt>
      <trkpt lat="49.1485" lon="-0.7315">
        <ele>110</ele>
        <time>2019-02-14T17:08:24Z</time>
      </trkpt>
      <trkpt lat="49.15001" lon="-0.73781">
        <ele>100</ele>
        <time>2019-02-14T17:09:24Z</time>
      </trkpt>
      <trkpt lat="49.14997" lon="-0.73963">
        <ele>94</ele>
        <time>2019-02-14T17:10:24Z</time>
      </trkpt>
      <trkpt lat="49.15132" lon="-0.74115">
        <ele>89</ele>
        <time>2019-02-14T17:11:24Z</time>
      </trkpt>
      <trkpt lat="49.15485" lon="-0.73794">
        <ele>87</ele>
        <time>2019-02-14T17:12:24Z</time>
      </trkpt>
      <trkpt lat="49.15553" lon="-0.73897">
        <ele>90</ele>
        <time>2019-02-14T17:13:24Z</time>
      </trkpt>
      <trkpt lat="49.15719" lon="-0.73751">
        <ele>97</ele>
        <time>2019-02-14T17:14:24Z</time>
      </trkpt>
      <trkpt lat="49.16112" lon="-0.74255">
        <ele>97</ele>
        <time>2019-02-14T17:15:24Z</time>
      </trkpt>
      <trkpt lat="49.16339" lon="-0.74522">
        <ele>113</ele>
        <time>2019-02-14T17:16:24Z</time>
      </trkpt>
      <trkpt lat="49.16148" lon="-0.75044">
        <ele>108</ele>
        <time>2019-02-14T17:17:24Z</time>
      </trkpt>
      <trkpt lat="49.16307" lon="-0.75378">
        <ele>101</ele>
        <time>2019-02-14T17:18:24Z</time>
      </trkpt>
      <trkpt lat="49.16136" lon="-0.75511">
        <ele>100</ele>
        <time>2019-02-14T17:19:24Z</time>
      </trkpt>
      <trkpt lat="49.15704" lon="-0.75912">
        <ele>105</ele>
        <time>2019-02-14T17:20:24Z</time>
      </trkpt>
      <trkpt lat="49.156" lon="-0.75802">
        <ele>110</ele>
        <time>2019-02-14T17:21:24Z</time>
      </trkpt>
      <trkpt lat="49.15234" lon="-0.76428">
        <ele>110</ele>
        <time>2019-02-14T17:22:24Z</time>
      </trkpt>
      <trkpt lat="49.15259" lon="-0.76537">
        <ele>109</ele>
        <time>2019-02-14T17:23:24Z</time>
      </trkpt>
      <trkpt lat="49.15414" lon="-0.77326">
        <ele>122</ele>
        <time>2019-02-14T17:24:24Z</time>
      </trkpt>
      <trkpt lat="49.15334" lon="-0.77362">
        <ele>123</ele>
        <time>2019-02-14T17:25:24Z</time>
      </trkpt>
      <trkpt lat="49.15394" lon="-0.77538">
        <ele>123</ele>
        <time>2019-02-14T17:26:24Z</time>
      </trkpt>
      <trkpt lat="49.15255" lon="-0.7772">
        <ele>127</ele>
        <time>2019-02-14T17:27:24Z</time>
      </trkpt>
      <trkpt lat="49.1535" lon="-0.7789">
        <ele>124</ele>
        <time>2019-02-14T17:28:24Z</time>
      </trkpt>
      <trkpt lat="49.15315" lon="-0.7806">
        <ele>126</ele>
        <time>2019-02-14T17:29:24Z</time>
      </trkpt>
      <trkpt lat="49.15684" lon="-0.78449">
        <ele>112</ele>
        <time>2019-02-14T17:30:24Z</time>
      </trkpt>
      <trkpt lat="49.15799" lon="-0.78273">
        <ele>111</ele>
        <time>2019-02-14T17:31:24Z</time>
      </trkpt>
      <trkpt lat="49.15926" lon="-0.78382">
        <ele>115</ele>
        <time>2019-02-14T17:32:24Z</time>
      </trkpt>
      <trkpt lat="49.16148" lon="-0.78964">
        <ele>135</ele>
        <time>2019-02-14T17:33:24Z</time>
      </trkpt>
      <trkpt lat="49.16247" lon="-0.7945">
        <ele>131</ele>
        <time>2019-02-14T17:34:24Z</time>
      </trkpt>
      <trkpt lat="49.16485" lon="-0.79778">
        <ele>130</ele>
        <time>2019-02-14T17:35:24Z</time>
      </trkpt>
      <trkpt lat="49.16521" lon="-0.80093">
        <ele>138</ele>
        <time>2019-02-14T17:36:24Z</time>
      </trkpt>
      <trkpt lat="49.16799" lon="-0.81228">
        <ele>137</ele>
        <time>2019-02-14T17:37:24Z</time>
      </trkpt>
      <trkpt lat="49.16489" lon="-0.83122">
        <ele>114</ele>
        <time>2019-02-14T17:38:24Z</time>
      </trkpt>
      <trkpt lat="49.16541" lon="-0.83298">
        <ele>109</ele>
        <time>2019-02-14T17:39:24Z</time>
      </trkpt>
      <trkpt lat="49.16477" lon="-0.83371">
        <ele>109</ele>
        <time>2019-02-14T17:40:24Z</time>
      </trkpt>
      <trkpt lat="49.16553" lon="-0.83413">
        <ele>106</ele>
        <time>2019-02-14T17:41:24Z</time>
      </trkpt>
      <trkpt lat="49.16481" lon="-0.83723">
        <ele>100</ele>
        <time>2019-02-14T17:42:24Z</time>
      </trkpt>
      <trkpt lat="49.16525" lon="-0.83868">
        <ele>99</ele>
        <time>2019-02-14T17:43:24Z</time>
      </trkpt>
      <trkpt lat="49.16243" lon="-0.83953">
        <ele>89</ele>
        <time>2019-02-14T17:44:24Z</time>
      </trkpt>
      <trkpt lat="49.16275" lon="-0.84439">
        <ele>80</ele>
        <time>2019-02-14T17:45:24Z</time>
      </trkpt>
      <trkpt lat="49.16093" lon="-0.84384">
        <ele>84</ele>
        <time>2019-02-14T17:46:24Z</time>
      </trkpt>
      <trkpt lat="49.1593" lon="-0.84317">
        <ele>84</ele>
        <time>2019-02-14T17:47:24Z</time>
      </trkpt>
      <trkpt lat="49.15727" lon="-0.84141">
        <ele>85</ele>
        <time>2019-02-14T17:48:24Z</time>
      </trkpt>
      <trkpt lat="49.15584" lon="-0.83893">
        <ele>81</ele>
        <time>2019-02-14T17:49:24Z</time>
      </trkpt>
      <trkpt lat="49.15481" lon="-0.83893">
        <ele>81</ele>
        <time>2019-02-14T17:50:24Z</time>
      </trkpt>
      <trkpt lat="49.15195" lon="-0.83978">
        <ele>93</ele>
        <time>2019-02-14T17:51:24Z</time>
      </trkpt>
      <trkpt lat="49.15219" lon="-0.8433">
        <ele>99</ele>
        <time>2019-02-14T17:52:24Z</time>
      </trkpt>
      <trkpt lat="49.151" lon="-0.84245">
        <ele>102</ele>
        <time>2019-02-14T17:53:24Z</time>
      </trkpt>
      <trkpt lat="49.14588" lon="-0.8456">
        <ele>130</ele>
        <time>2019-02-14T17:54:24Z</time>
      </trkpt>
      <trkpt lat="49.14723" lon="-0.85295">
        <ele>113</ele>
        <time>2019-02-14T17:55:24Z</time>
      </trkpt>
      <trkpt lat="49.14687" lon="-0.85865">
        <ele>95</ele>
        <time>2019-02-14T17:56:24Z</time>
      </trkpt>
      <trkpt lat="49.14596" lon="-0.86211">
        <ele>89</ele>
        <time>2019-02-14T17:57:24Z</time>
      </trkpt>
      <trkpt lat="49.14505" lon="-0.86375">
        <ele>84</ele>
        <time>2019-02-14T17:58:24Z</time>
      </trkpt>
      <trkpt lat="49.14711" lon="-0.86666">
        <ele>79</ele>
        <time>2019-02-14T17:59:24Z</time>
      </trkpt>
      <trkpt lat="49.14842" lon="-0.87231">
        <ele>94</ele>
        <time>2019-02-14T18:00:24Z</time>
      </trkpt>
      <trkpt lat="49.15068" lon="-0.87698">
        <ele>84</ele>
        <time>2019-02-14T18:01:24Z</time>
      </trkpt>
      <trkpt lat="49.15184" lon="-0.87753">
        <ele>89</ele>
        <time>2019-02-14T18:02:24Z</time>
      </trkpt>
      <trkpt lat="49.15267" lon="-0.88123">
        <ele>94</ele>
        <time>2019-02-14T18:03:24Z</time>
      </trkpt>
      <trkpt lat="49.14858" lon="-0.88487">
        <ele>102</ele>
        <time>2019-02-14T18:04:24Z</time>
      </trkpt>
      <trkpt lat="49.14163" lon="-0.89252">
        <ele>102</ele>
        <time>2019-02-14T18:05:24Z</time>
      </trkpt>
      <trkpt lat="49.14624" lon="-0.89846">
        <ele>114</ele>
        <time>2019-02-14T18:06:24Z</time>
      </trkpt>
      <trkpt lat="49.14464" lon="-0.90198">
        <ele>116</ele>
        <time>2019-02-14T18:07:24Z</time>
      </trkpt>
      <trkpt lat="49.14139" lon="-0.90623">
        <ele>121</ele>
        <time>2019-02-14T18:08:24Z</time>
      </trkpt>
      <trkpt lat="49.14437" lon="-0.91018">
        <ele>120</ele>
        <time>2019-02-14T18:09:24Z</time>
      </trkpt>
      <trkpt lat="49.15096" lon="-0.90623">
        <ele>121</ele>
        <time>2019-02-14T18:10:24Z</time>
      </trkpt>
      <trkpt lat="49.15203" lon="-0.90733">
        <ele>126</ele>
        <time>2019-02-14T18:11:24Z</time>
      </trkpt>
      <trkpt lat="49.15315" lon="-0.90526">
        <ele>122</ele>
        <time>2019-02-14T18:12:24Z</time>
      </trkpt>
      <trkpt lat="49.15263" lon="-0.90435">
        <ele>120</ele>
        <time>2019-02-14T18:13:24Z</time>
      </trkpt>
      <trkpt lat="49.15303" lon="-0.90277">
        <ele>116</ele>
        <time>2019-02-14T18:14:24Z</time>
      </trkpt>
      <trkpt lat="49.15422" lon="-0.9012">
        <ele>119</ele>
        <time>2019-02-14T18:15:24Z</time>
      </trkpt>
      <trkpt lat="49.15684" lon="-0.90035">
        <ele>127</ele>
        <time>2019-02-14T18:16:24Z</time>
      </trkpt>
      <trkpt lat="49.1589" lon="-0.90083">
        <ele>132</ele>
        <time>2019-02-14T18:17:24Z</time>
      </trkpt>
      <trkpt lat="49.16275" lon="-0.90441">
        <ele>144</ele>
        <time>2019-02-14T18:18:24Z</time>
      </trkpt>
      <trkpt lat="49.16489" lon="-0.90696">
        <ele>149</ele>
        <time>2019-02-14T18:19:24Z</time>
      </trkpt>
      <trkpt lat="49.16398" lon="-0.91018">
        <ele>147</ele>
        <time>2019-02-14T18:20:24Z</time>
      </trkpt>
      <trkpt lat="49.16521" lon="-0.91855">
        <ele>135</ele>
        <time>2019-02-14T18:21:24Z</time>
      </trkpt>
      <trkpt lat="49.16843" lon="-0.92256">
        <ele>125</ele>
        <time>2019-02-14T18:22:24Z</time>
      </trkpt>
      <trkpt lat="49.1695" lon="-0.92226">
        <ele>123</ele>
        <time>2019-02-14T18:23:24Z</time>
      </trkpt>
      <trkpt lat="49.16989" lon="-0.91412">
        <ele>136</ele>
        <time>2019-02-14T18:24:24Z</time>
      </trkpt>
      <trkpt lat="49.17565" lon="-0.91473">
        <ele>133</ele>
        <time>2019-02-14T18:25:24Z</time>
      </trkpt>
      <trkpt lat="49.17593" lon="-0.91115">
        <ele>139</ele>
        <time>2019-02-14T18:26:24Z</time>
      </trkpt>
      <trkpt lat="49.1833" lon="-0.91121">
        <ele>118</ele>
        <time>2019-02-14T18:27:24Z</time>
      </trkpt>
      <trkpt lat="49.18322" lon="-0.91467">
        <ele>118</ele>
        <time>2019-02-14T18:28:24Z</time>
      </trkpt>
      <trkpt lat="49.18481" lon="-0.91588">
        <ele>102</ele>
        <time>2019-02-14T18:29:24Z</time>
      </trkpt>
      <trkpt lat="49.18592" lon="-0.91849">
        <ele>100</ele>
        <time>2019-02-14T18:30:24Z</time>
      </trkpt>
      <trkpt lat="49.18806" lon="-0.91977">
        <ele>97</ele>
        <time>2019-02-14T18:31:24Z</time>
      </trkpt>
      <trkpt lat="49.18933" lon="-0.92238">
        <ele>96</ele>
        <time>2019-02-14T18:32:24Z</time>
      </trkpt>
      <trkpt lat="49.18989" lon="-0.92596">
        <ele>96</ele>
        <time>2019-02-14T18:33:24Z</time>
      </trkpt>
      <trkpt lat="49.18997" lon="-0.92893">
        <ele>98</ele>
        <time>2019-02-14T18:34:24Z</time>
      </trkpt>
      <trkpt lat="49.18969" lon="-0.93172">
        <ele>98</ele>
        <time>2019-02-14T18:35:24Z</time>
      </trkpt>
      <trkpt lat="49.18933" lon="-0.9336">
        <ele>97</ele>
        <time>2019-02-14T18:36:24Z</time>
      </trkpt>
      <trkpt lat="49.19267" lon="-0.93433">
        <ele>95</ele>
        <time>2019-02-14T18:37:24Z</time>
      </trkpt>
      <trkpt lat="49.19346" lon="-0.93324">
        <ele>95</ele>
        <time>2019-02-14T18:38:24Z</time>
      </trkpt>
      <trkpt lat="49.19425" lon="-0.93427">
        <ele>92</ele>
        <time>2019-02-14T18:39:24Z</time>
      </trkpt>
      <trkpt lat="49.19512" lon="-0.93379">
        <ele>89</ele>
        <time>2019-02-14T18:40:24Z</time>
      </trkpt>
      <trkpt lat="49.19699" lon="-0.93494">
        <ele>85</ele>
        <time>2019-02-14T18:41:24Z</time>
      </trkpt>
      <trkpt lat="49.19806" lon="-0.93342">
        <ele>83</ele>
        <time>2019-02-14T18:42:24Z</time>
      </trkpt>
      <trkpt lat="49.19885" lon="-0.93476">
        <ele>81</ele>
        <time>2019-02-14T18:43:24Z</time>
      </trkpt>
      <trkpt lat="49.19945" lon="-0.93719">
        <ele>76</ele>
        <time>2019-02-14T18:44:24Z</time>
      </trkpt>
      <trkpt lat="49.20508" lon="-0.94162">
        <ele>63</ele>
        <time>2019-02-14T18:45:24Z</time>
      </trkpt>
      <trkpt lat="49.20789" lon="-0.94216">
        <ele>66</ele>
        <time>2019-02-14T18:46:24Z</time>
      </trkpt>
      <trkpt lat="49.2096" lon="-0.94228">
        <ele>68</ele>
        <time>2019-02-14T18:47:24Z</time>
      </trkpt>
      <trkpt lat="49.21059" lon="-0.9438">
        <ele>65</ele>
        <time>2019-02-14T18:48:24Z</time>
      </trkpt>
      <trkpt lat="49.21122" lon="-0.94289">
        <ele>65</ele>
        <time>2019-02-14T18:49:24Z</time>
      </trkpt>
      <trkpt lat="49.2163" lon="-0.94344">
        <ele>72</ele>
        <time>2019-02-14T18:50:24Z</time>
      </trkpt>
      <trkpt lat="49.22026" lon="-0.94562">
        <ele>68</ele>
        <time>2019-02-14T18:51:24Z</time>
      </trkpt>
      <trkpt lat="49.22387" lon="-0.95029">
        <ele>72</ele>
        <time>2019-02-14T18:52:24Z</time>
      </trkpt>
      <trkpt lat="49.22712" lon="-0.94811">
        <ele>70</ele>
        <time>2019-02-14T18:53:24Z</time>
      </trkpt>
      <trkpt lat="49.22736" lon="-0.94987">
        <ele>70</ele>
        <time>2019-02-14T18:54:24Z</time>
      </trkpt>
      <trkpt lat="49.22898" lon="-0.95102">
        <ele>68</ele>
        <time>2019-02-14T18:55:24Z</time>
      </trkpt>
      <trkpt lat="49.22962" lon="-0.95424">
        <ele>62</ele>
        <time>2019-02-14T18:56:24Z</time>
      </trkpt>
      <trkpt lat="49.23311" lon="-0.95831">
        <ele>34</ele>
        <time>2019-02-14T18:57:24Z</time>
      </trkpt>
      <trkpt lat="49.23544" lon="-0.95642">
        <ele>30</ele>
        <time>2019-02-14T18:58:24Z</time>
      </trkpt>
      <trkpt lat="49.23632" lon="-0.95764">
        <ele>29</ele>
        <time>2019-02-14T18:59:24Z</time>
      </trkpt>
      <trkpt lat="49.23774" lon="-0.96243">
        <ele>35</ele>
        <time>2019-02-14T19:00:24Z</time>
      </trkpt>
      <trkpt lat="49.23846" lon="-0.9617">
        <ele>34</ele>
        <time>2019-02-14T19:01:24Z</time>
      </trkpt>
      <trkpt lat="49.23992" lon="-0.97038">
        <ele>35</ele>
        <time>2019-02-14T19:02:24Z</time>
      </trkpt>
      <trkpt lat="49.24495" lon="-0.96753">
        <ele>38</ele>
        <time>2019-02-14T19:03:24Z</time>
      </trkpt>
      <trkpt lat="49.2509" lon="-0.96535">
        <ele>34</ele>
        <time>2019-02-14T19:04:24Z</time>
      </trkpt>
      <trkpt lat="49.25236" lon="-0.97184">
        <ele>35</ele>
        <time>2019-02-14T19:05:24Z</time>
      </trkpt>
      <trkpt lat="49.2543" lon="-0.97469">
        <ele>35</ele>
        <time>2019-02-14T19:06:24Z</time>
      </trkpt>
      <trkpt lat="49.25601" lon="-0.97791">
        <ele>38</ele>
        <time>2019-02-14T19:07:24Z</time>
      </trkpt>
      <trkpt lat="49.25866" lon="-0.97773">
        <ele>38</ele>
        <time>2019-02-14T19:08:24Z</time>
      </trkpt>
      <trkpt lat="49.25953" lon="-0.98131">
        <ele>39</ele>
        <time>2019-02-14T19:09:24Z</time>
      </trkpt>
      <trkpt lat="49.26048" lon="-0.98204">
        <ele>38</ele>
        <time>2019-02-14T19:10:24Z</time>
      </trkpt>
      <trkpt lat="49.25945" lon="-0.98416">
        <ele>41</ele>
        <time>2019-02-14T19:11:24Z</time>
      </trkpt>
      <trkpt lat="49.25811" lon="-0.98786">
        <ele>42</ele>
        <time>2019-02-14T19:12:24Z</time>
      </trkpt>
      <trkpt lat="49.26009" lon="-0.98896">
        <ele>40</ele>
        <time>2019-02-14T19:13:24Z</time>
      </trkpt>
      <trkpt lat="49.261" lon="-0.98804">
        <ele>40</ele>
        <time>2019-02-14T19:14:24Z</time>
      </trkpt>
      <trkpt lat="49.26175" lon="-0.98968">
        <ele>41</ele>
        <time>2019-02-14T19:15:24Z</time>
      </trkpt>
      <trkpt lat="49.26638" lon="-0.99466">
        <ele>62</ele>
        <time>2019-02-14T19:16:24Z</time>
      </trkpt>
      <trkpt lat="49.26619" lon="-0.99751">
        <ele>63</ele>
        <time>2019-02-14T19:17:24Z</time>
      </trkpt>
      <trkpt lat="49.26634" lon="-1.00789">
        <ele>34</ele>
        <time>2019-02-14T19:18:24Z</time>
      </trkpt>
      <trkpt lat="49.26678" lon="-1.02252">
        <ele>38</ele>
        <time>2019-02-14T19:19:24Z</time>
      </trkpt>
      <trkpt lat="49.26096" lon="-1.02276">
        <ele>44</ele>
        <time>2019-02-14T19:20:24Z</time>
      </trkpt>
      <trkpt lat="49.25842" lon="-1.02634">
        <ele>39</ele>
        <time>2019-02-14T19:21:24Z</time>
      </trkpt>
      <trkpt lat="49.25775" lon="-1.03023">
        <ele>42</ele>
        <time>2019-02-14T19:22:24Z</time>
      </trkpt>
      <trkpt lat="49.26028" lon="-1.03041">
        <ele>33</ele>
        <time>2019-02-14T19:23:24Z</time>
      </trkpt>
      <trkpt lat="49.26179" lon="-1.03144">
        <ele>27</ele>
        <time>2019-02-14T19:24:24Z</time>
      </trkpt>
      <trkpt lat="49.26504" lon="-1.0301">
        <ele>28</ele>
        <time>2019-02-14T19:25:24Z</time>
      </trkpt>
      <trkpt lat="49.26729" lon="-1.03053">
        <ele>26</ele>
        <time>2019-02-14T19:26:24Z</time>
      </trkpt>
      <trkpt lat="49.26777" lon="-1.03514">
        <ele>31</ele>
        <time>2019-02-14T19:27:24Z</time>
      </trkpt>
      <trkpt lat="49.2669" lon="-1.04485">
        <ele>37</ele>
        <time>2019-02-14T19:28:24Z</time>
      </trkpt>
      <trkpt lat="49.26769" lon="-1.04661">
        <ele>41</ele>
        <time>2019-02-14T19:29:24Z</time>
      </trkpt>
      <trkpt lat="49.27042" lon="-1.05044">
        <ele>40</ele>
        <time>2019-02-14T19:30:24Z</time>
      </trkpt>
      <trkpt lat="49.27122" lon="-1.05025">
        <ele>38</ele>
        <time>2019-02-14T19:31:24Z</time>
      </trkpt>
      <trkpt lat="49.27217" lon="-1.05402">
        <ele>37</ele>
        <time>2019-02-14T19:32:24Z</time>
      </trkpt>
      <trkpt lat="49.27213" lon="-1.05596">
        <ele>38</ele>
        <time>2019-02-14T19:33:24Z</time>
      </trkpt>
      <trkpt lat="49.27157" lon="-1.05875">
        <ele>41</ele>
        <time>2019-02-14T19:34:24Z</time>
      </trkpt>
      <trkpt lat="49.26979" lon="-1.0627">
        <ele>44</ele>
        <time>2019-02-14T19:35:24Z</time>
      </trkpt>
      <trkpt lat="49.26995" lon="-1.06549">
        <ele>44</ele>
        <time>2019-02-14T19:36:24Z</time>
      </trkpt>
      <trkpt lat="49.26975" lon="-1.06816">
        <ele>44</ele>
        <time>2019-02-14T19:37:24Z</time>
      </trkpt>
      <trkpt lat="49.26951" lon="-1.0735">
        <ele>42</ele>
        <time>2019-02-14T19:38:24Z</time>
      </trkpt>
      <trkpt lat="49.26737" lon="-1.07514">
        <ele>37</ele>
        <time>2019-02-14T19:39:24Z</time>
      </trkpt>
      <trkpt lat="49.26595" lon="-1.0786">
        <ele>40</ele>
        <time>2019-02-14T19:40:24Z</time>
      </trkpt>
      <trkpt lat="49.26662" lon="-1.07975">
        <ele>38</ele>
        <time>2019-02-14T19:41:24Z</time>
      </trkpt>
      <trkpt lat="49.26448" lon="-1.08102">
        <ele>38</ele>
        <time>2019-02-14T19:42:24Z</time>
      </trkpt>
      <trkpt lat="49.265" lon="-1.08382">
        <ele>31</ele>
        <time>2019-02-14T19:43:24Z</time>
      </trkpt>
      <trkpt lat="49.26223" lon="-1.09061">
        <ele>14</ele>
        <time>2019-02-14T19:44:24Z</time>
      </trkpt>
      <trkpt lat="49.26084" lon="-1.09231">
        <ele>6</ele>
        <time>2019-02-14T19:45:24Z</time>
      </trkpt>
      <trkpt lat="49.25997" lon="-1.09498">
        <ele>1</ele>
        <time>2019-02-14T19:46:24Z</time>
      </trkpt>
      <trkpt lat="49.25791" lon="-1.0999">
        <ele>1</ele>
        <time>2019-02-14T19:47:24Z</time>
      </trkpt>
      <trkpt lat="49.26587" lon="-1.10809">
        <ele>4</ele>
        <time>2019-02-14T19:48:24Z</time>
      </trkpt>
      <trkpt lat="49.26908" lon="-1.10821">
        <ele>1.1</ele>
        <time>2019-02-14T19:49:24Z</time>
      </trkpt>
      <trkpt lat="49.26967" lon="-1.11926">
        <ele>1</ele>
        <time>2019-02-14T19:50:24Z</time>
      </trkpt>
      <trkpt lat="49.2728" lon="-1.1192">
        <ele>1</ele>
        <time>2019-02-14T19:51:24Z</time>
      </trkpt>
      <trkpt lat="49.27411" lon="-1.12035">
        <ele>1</ele>
        <time>2019-02-14T19:52:24Z</time>
      </trkpt>
      <trkpt lat="49.27462" lon="-1.11896">
        <ele>1</ele>
        <time>2019-02-14T19:53:24Z</time>
      </trkpt>
      <trkpt lat="49.27419" lon="-1.11811">
        <ele>1</ele>
        <time>2019-02-14T19:54:24Z</time>
      </trkpt>
      <trkpt lat="49.2749" lon="-1.11544">
        <ele>2</ele>
        <time>2019-02-14T19:55:24Z</time>
      </trkpt>
      <trkpt lat="49.27593" lon="-1.11519">
        <ele>4</ele>
        <time>2019-02-14T19:56:24Z</time>
      </trkpt>
      <trkpt lat="49.27581" lon="-1.11404">
        <ele>10</ele>
        <time>2019-02-14T19:57:24Z</time>
      </trkpt>
      <trkpt lat="49.27514" lon="-1.11155">
        <ele>13</ele>
        <time>2019-02-14T19:58:24Z</time>
      </trkpt>
      <trkpt lat="49.28282" lon="-1.11659">
        <ele>3</ele>
        <time>2019-02-14T19:59:24Z</time>
      </trkpt>
      <trkpt lat="49.29065" lon="-1.11471">
        <ele>4</ele>
        <time>2019-02-14T20:00:24Z</time>
      </trkpt>
      <trkpt lat="49.29054" lon="-1.1172">
        <ele>1</ele>
        <time>2019-02-14T20:01:24Z</time>
      </trkpt>
      <trkpt lat="49.28907" lon="-1.11962">
        <ele>2</ele>
        <time>2019-02-14T20:02:24Z</time>
      </trkpt>
      <trkpt lat="49.29081" lon="-1.12217">
        <ele>3</ele>
        <time>2019-02-14T20:03:24Z</time>
      </trkpt>
      <trkpt lat="49.30035" lon="-1.12788">
        <ele>1</ele>
        <time>2019-02-14T20:04:24Z</time>
      </trkpt>
      <trkpt lat="49.30601" lon="-1.1317">
        <ele>3</ele>
        <time>2019-02-14T20:05:24Z</time>
      </trkpt>
      <trkpt lat="49.30775" lon="-1.13116">
        <ele>6</ele>
        <time>2019-02-14T20:06:24Z</time>
      </trkpt>
      <trkpt lat="49.30771" lon="-1.1297">
        <ele>9</ele>
        <time>2019-02-14T20:07:24Z</time>
      </trkpt>
      <trkpt lat="49.30922" lon="-1.1294">
        <ele>4</ele>
        <time>2019-02-14T20:08:24Z</time>
      </trkpt>
      <trkpt lat="49.318" lon="-1.10937">
        <ele>3</ele>
        <time>2019-02-14T20:09:24Z</time>
      </trkpt>
      <trkpt lat="49.32077" lon="-1.11198">
        <ele>2</ele>
        <time>2019-02-14T20:10:24Z</time>
      </trkpt>
      <trkpt lat="49.32271" lon="-1.1073">
        <ele>3</ele>
        <time>2019-02-14T20:11:24Z</time>
      </trkpt>
      <trkpt lat="49.31946" lon="-1.09978">
        <ele>6</ele>
        <time>2019-02-14T20:12:24Z</time>
      </trkpt>
    </trkseg>
  </trk>
</gpx>